createdAt,value
2023-01-01T00:01:26.428Z,6.35
2023-01-01T00:03:57.577Z,5.30
2023-01-01T00:06:27.839Z,7.47
2023-01-01T00:09:10.771Z,5.85
2023-01-01T00:11:40.181Z,5.53
2023-01-01T00:14:12.481Z,6.00
2023-01-01T00:16:43.607Z,6.97
2023-01-01T00:19:12.944Z,6.15
2023-01-01T00:21:42.420Z,6.13
2023-01-01T00:24:11.697Z,6.18
2023-01-01T00:29:09.978Z,4.70
2023-01-01T00:34:12.087Z,5.22
2023-01-01T00:36:41.499Z,6.28
2023-01-01T00:39:10.449Z,4.97
2023-01-01T00:41:40.144Z,5.28
2023-01-01T00:44:09.381Z,4.00
2023-01-01T00:46:38.669Z,4.05
2023-01-01T00:49:09.057Z,4.63
2023-01-01T00:51:38.441Z,4.32
2023-01-01T00:54:07.679Z,3.65
2023-01-01T00:56:37.062Z,2.80
2023-01-01T00:59:06.402Z,4.43
2023-01-01T01:01:36.003Z,3.05
2023-01-01T01:04:05.418Z,3.60
2023-01-01T01:09:07.014Z,4.32
2023-01-01T01:11:36.515Z,4.53
2023-01-01T01:14:05.554Z,3.03
2023-01-01T01:19:06.643Z,2.60
2023-01-01T01:21:37.391Z,3.30
2023-01-01T01:24:06.803Z,3.67
2023-01-01T01:26:36.765Z,3.22
2023-01-01T01:31:35.930Z,3.05
2023-01-01T01:34:06.073Z,2.58
2023-01-01T01:36:36.906Z,3.35
2023-01-01T01:39:06.094Z,3.13
2023-01-01T01:44:08.459Z,3.58
2023-01-01T01:46:42.528Z,3.80
2023-01-01T01:49:17.516Z,3.45
2023-01-01T01:51:48.849Z,3.60
2023-01-01T01:54:23.494Z,2.42
2023-01-01T01:56:56.825Z,2.83
2023-01-01T01:59:31.897Z,3.47
2023-01-01T02:02:02.659Z,3.08
2023-01-01T02:04:32.450Z,2.60
2023-01-01T02:07:03.389Z,3.55
2023-01-01T02:09:32.549Z,3.58
2023-01-01T02:12:01.829Z,3.17
2023-01-01T02:14:33.439Z,3.45
2023-01-01T02:17:08.823Z,3.55
2023-01-01T02:19:45.972Z,3.13
2023-01-01T02:22:25.874Z,3.28
2023-01-01T02:25:09.754Z,3.22
2023-01-01T02:27:49.893Z,3.13
2023-01-01T02:30:21.303Z,3.85
2023-01-01T02:32:56.037Z,3.17
2023-01-01T02:35:35.464Z,4.53
2023-01-01T02:38:10.482Z,3.45
2023-01-01T02:40:44.226Z,3.60
2023-01-01T02:43:13.632Z,3.33
2023-01-01T02:45:44.300Z,4.13
2023-01-01T02:48:39.292Z,3.00
2023-01-01T02:51:20.870Z,3.83
2023-01-01T02:53:57.199Z,2.55
2023-01-01T02:56:35.197Z,2.10
2023-01-01T02:59:39.828Z,2.97
2023-01-01T03:02:21.481Z,2.95
2023-01-01T03:05:05.097Z,3.35
2023-01-01T03:07:42.351Z,3.20
2023-01-01T03:10:16.807Z,3.53
2023-01-01T03:12:55.971Z,4.03
2023-01-01T03:15:29.727Z,2.97
2023-01-01T03:18:08.078Z,3.72
2023-01-01T03:20:42.810Z,3.60
2023-01-01T03:23:17.454Z,3.10
2023-01-01T03:25:50.993Z,2.67
2023-01-01T03:28:24.501Z,3.70
2023-01-01T03:31:22.053Z,3.58
2023-01-01T03:33:57.989Z,3.92
2023-01-01T03:36:34.082Z,2.40
2023-01-01T03:39:09.977Z,3.17
2023-01-01T03:41:45.282Z,3.38
2023-01-01T03:44:21.663Z,3.55
2023-01-01T03:46:51.657Z,3.80
2023-01-01T03:49:23.007Z,4.10
2023-01-01T03:52:04.112Z,3.70
2023-01-01T03:54:42.044Z,3.65
2023-01-01T03:57:17.114Z,3.67
2023-01-01T03:59:53.935Z,3.28
2023-01-01T04:02:28.852Z,3.58
2023-01-01T04:05:01.157Z,3.53
2023-01-01T04:07:32.727Z,4.07
2023-01-01T04:10:17.235Z,3.05
2023-01-01T04:12:50.767Z,4.18
2023-01-01T04:15:21.545Z,3.90
2023-01-01T04:17:51.364Z,3.60
2023-01-01T04:20:23.003Z,3.25
2023-01-01T04:22:52.659Z,3.40
2023-01-01T04:25:21.658Z,3.13
2023-01-01T04:30:20.190Z,3.35
2023-01-01T04:32:49.501Z,3.53
2023-01-01T04:35:18.742Z,3.05
2023-01-01T04:40:18.558Z,3.95
2023-01-01T04:42:47.793Z,2.42
2023-01-01T04:45:18.001Z,5.43
2023-01-01T04:47:47.421Z,4.57
2023-01-01T04:50:16.502Z,3.40
2023-01-01T04:55:16.064Z,4.07
2023-01-01T04:57:45.535Z,4.75
2023-01-01T05:00:15.177Z,4.38
2023-01-01T05:02:44.637Z,4.40
2023-01-01T05:05:13.655Z,4.78
2023-01-01T05:10:11.976Z,4.30
2023-01-01T05:12:42.746Z,5.50
2023-01-01T05:15:12.493Z,5.50
2023-01-01T05:17:41.795Z,4.40
2023-01-01T05:20:11.415Z,5.05
2023-01-01T05:22:40.716Z,5.80
2023-01-01T05:25:10.157Z,4.75
2023-01-01T05:27:40.943Z,6.95
2023-01-01T05:30:10.891Z,7.15
2023-01-01T05:32:40.182Z,6.68
2023-01-01T05:35:09.844Z,6.88
2023-01-01T05:37:39.136Z,5.72
2023-01-01T05:40:09.387Z,6.13
2023-01-01T05:42:38.770Z,8.05
2023-01-01T05:45:10.450Z,7.43
2023-01-01T05:47:39.883Z,5.82
2023-01-01T05:52:38.391Z,6.28
2023-01-01T05:55:08.262Z,6.78
2023-01-01T05:57:37.604Z,8.38
2023-01-01T06:00:09.490Z,5.75
2023-01-01T06:02:39.525Z,8.98
2023-01-01T06:10:11.454Z,8.57
2023-01-01T06:12:40.737Z,6.63
2023-01-01T06:15:11.938Z,8.55
2023-01-01T06:17:41.290Z,8.90
2023-01-01T06:20:11.259Z,7.88
2023-01-01T06:22:41.196Z,9.60
2023-01-01T06:25:11.436Z,8.35
2023-01-01T06:27:41.063Z,8.32
2023-01-01T06:32:41.468Z,8.00
2023-01-01T06:35:11.152Z,10.10
2023-01-01T06:37:40.554Z,8.32
2023-01-01T06:40:10.684Z,8.18
2023-01-01T06:42:40.745Z,9.27
2023-01-01T06:45:13.408Z,6.70
2023-01-01T06:47:42.889Z,8.25
2023-01-01T06:50:12.064Z,6.47
2023-01-01T06:55:11.063Z,6.85
2023-01-01T06:57:40.481Z,7.32
2023-01-01T07:00:10.750Z,5.60
2023-01-01T07:02:41.727Z,6.57
2023-01-01T07:05:11.348Z,6.75
2023-01-01T07:07:41.137Z,6.72
2023-01-01T07:10:10.927Z,6.28
2023-01-01T07:12:40.183Z,6.75
2023-01-01T07:15:11.382Z,5.70
2023-01-01T07:17:42.168Z,5.78
2023-01-01T07:20:12.035Z,7.35
2023-01-01T07:22:42.627Z,6.50
2023-01-01T07:25:15.466Z,7.07
2023-01-01T07:27:46.832Z,4.88
2023-01-01T07:30:16.281Z,5.75
2023-01-01T07:32:46.960Z,4.53
2023-01-01T07:35:16.295Z,4.43
2023-01-01T07:37:45.560Z,5.97
2023-01-01T07:40:14.785Z,5.13
2023-01-01T07:45:14.521Z,4.60
2023-01-01T07:47:49.575Z,4.63
2023-01-01T07:50:19.778Z,4.32
2023-01-01T07:52:49.398Z,5.65
2023-01-01T07:57:48.749Z,4.30
2023-01-01T08:00:19.895Z,4.05
2023-01-01T08:02:50.973Z,4.10
2023-01-01T08:05:26.186Z,5.50
2023-01-01T08:07:56.821Z,4.30
2023-01-01T08:10:26.042Z,3.70
2023-01-01T08:13:01.419Z,4.13
2023-01-01T08:15:31.110Z,5.15
2023-01-01T08:18:03.281Z,5.40
2023-01-01T08:20:33.344Z,3.53
2023-01-01T08:23:07.392Z,5.25
2023-01-01T08:25:36.987Z,4.63
2023-01-01T08:30:35.338Z,4.93
2023-01-01T08:33:06.086Z,4.35
2023-01-01T08:35:37.111Z,5.45
2023-01-01T08:38:06.699Z,4.30
2023-01-01T08:40:36.676Z,4.82
2023-01-01T08:43:06.064Z,4.40
2023-01-01T08:45:35.028Z,4.65
2023-01-01T08:50:34.879Z,4.07
2023-01-01T08:53:04.499Z,5.10
2023-01-01T08:55:33.502Z,5.88
2023-01-01T09:00:31.808Z,4.40
2023-01-01T09:03:01.303Z,4.80
2023-01-01T09:05:31.825Z,4.15
2023-01-01T09:08:01.232Z,5.43
2023-01-01T09:10:30.257Z,3.97
2023-01-01T09:15:28.404Z,5.15
2023-01-01T09:17:58.125Z,6.53
2023-01-01T09:23:04.038Z,3.65
2023-01-01T09:25:36.162Z,5.47
2023-01-01T09:28:08.505Z,3.63
2023-01-01T09:30:37.906Z,3.40
2023-01-01T09:33:07.206Z,4.68
2023-01-01T09:35:38.573Z,5.30
2023-01-01T09:38:09.345Z,5.15
2023-01-01T09:40:51.539Z,5.95
2023-01-01T09:43:32.676Z,4.03
2023-01-01T09:46:06.663Z,4.43
2023-01-01T09:48:40.460Z,5.13
2023-01-01T09:51:16.295Z,5.13
2023-01-01T09:53:52.574Z,5.88
2023-01-01T09:56:27.330Z,3.63
2023-01-01T09:58:59.320Z,6.13
2023-01-01T10:01:38.178Z,4.18
2023-01-01T10:04:27.909Z,5.30
2023-01-01T10:07:05.215Z,4.55
2023-01-01T10:09:46.038Z,3.83
2023-01-01T10:12:23.369Z,5.30
2023-01-01T10:15:01.023Z,5.28
2023-01-01T10:17:36.662Z,6.68
2023-01-01T10:20:16.632Z,6.75
2023-01-01T10:22:50.430Z,5.60
2023-01-01T10:25:24.196Z,4.82
2023-01-01T10:27:59.713Z,6.30
2023-01-01T10:30:31.281Z,5.10
2023-01-01T10:33:02.638Z,3.92
2023-01-01T10:35:37.211Z,5.63
2023-01-01T10:38:06.863Z,4.93
2023-01-01T10:40:37.661Z,4.88
2023-01-01T10:43:12.289Z,2.92
2023-01-01T10:45:45.404Z,4.43
2023-01-01T10:48:18.045Z,4.90
2023-01-01T10:50:51.250Z,4.57
2023-01-01T10:53:28.334Z,5.20
2023-01-01T10:56:08.151Z,3.72
2023-01-01T10:58:41.943Z,5.03
2023-01-01T11:01:13.521Z,4.63
2023-01-01T11:03:56.336Z,4.45
2023-01-01T11:06:28.148Z,5.93
2023-01-01T11:08:59.538Z,3.03
2023-01-01T11:11:32.239Z,5.38
2023-01-01T11:14:06.125Z,4.85
2023-01-01T11:16:39.831Z,5.13
2023-01-01T11:19:17.804Z,5.28
2023-01-01T11:21:49.326Z,3.63
2023-01-01T11:24:24.327Z,4.32
2023-01-01T11:27:13.420Z,3.70
2023-01-01T11:29:42.562Z,3.30
2023-01-01T11:34:50.744Z,2.67
2023-01-01T11:37:28.150Z,4.45
2023-01-01T11:39:59.688Z,3.97
2023-01-01T11:42:34.252Z,3.15
2023-01-01T11:45:07.975Z,5.45
2023-01-01T11:47:42.884Z,3.67
2023-01-01T11:50:24.866Z,3.83
2023-01-01T11:52:58.431Z,3.65
2023-01-01T11:55:42.318Z,3.17
2023-01-01T11:58:25.887Z,3.42
2023-01-01T12:00:58.077Z,3.95
2023-01-01T12:03:33.548Z,2.33
2023-01-01T12:06:09.307Z,4.78
2023-01-01T12:08:43.615Z,4.57
2023-01-01T12:11:20.967Z,3.05
2023-01-01T12:13:58.459Z,3.88
2023-01-01T12:16:42.180Z,3.17
2023-01-01T12:19:17.062Z,2.75
2023-01-01T12:21:52.776Z,2.63
2023-01-01T12:24:22.810Z,3.28
2023-01-01T12:30:01.093Z,4.30
2023-01-01T12:32:42.066Z,2.95
2023-01-01T12:35:22.996Z,3.97
2023-01-01T12:38:02.928Z,2.67
2023-01-01T12:40:49.462Z,3.60
2023-01-01T12:43:24.445Z,4.20
2023-01-01T12:46:30.085Z,2.75
2023-01-01T12:49:40.569Z,3.35
2023-01-01T12:52:22.355Z,3.63
2023-01-01T12:55:18.534Z,2.78
2023-01-01T12:57:53.030Z,2.35
2023-01-01T13:00:22.795Z,2.72
2023-01-01T13:02:59.462Z,2.35
2023-01-01T13:05:37.579Z,3.00
2023-01-01T13:08:08.345Z,2.58
2023-01-01T13:10:40.643Z,3.70
2023-01-01T13:13:11.696Z,2.72
2023-01-01T13:15:50.128Z,2.50
2023-01-01T13:18:28.331Z,2.72
2023-01-01T13:21:06.490Z,3.45
2023-01-01T13:23:55.872Z,3.10
2023-01-01T13:26:41.645Z,1.75
2023-01-01T13:29:38.584Z,3.10
2023-01-01T13:32:10.348Z,2.70
2023-01-01T13:35:20.335Z,2.85
2023-01-01T13:37:50.098Z,3.10
2023-01-01T13:40:56.445Z,2.67
2023-01-01T13:43:30.823Z,2.65
2023-01-01T13:46:14.702Z,2.10
2023-01-01T13:49:14.309Z,2.38
2023-01-01T13:52:24.715Z,2.80
2023-01-01T13:55:25.037Z,2.13
2023-01-01T13:58:40.062Z,3.03
2023-01-01T14:01:26.801Z,3.28
2023-01-01T14:04:00.035Z,3.60
2023-01-01T14:06:36.149Z,1.95
2023-01-01T14:09:13.277Z,2.60
2023-01-01T14:11:42.939Z,4.47
2023-01-01T14:14:28.275Z,2.90
2023-01-01T14:17:00.456Z,3.13
2023-01-01T14:19:31.473Z,2.72
2023-01-01T14:22:01.584Z,1.92
2023-01-01T14:24:33.108Z,2.38
2023-01-01T14:27:06.354Z,2.13
2023-01-01T14:29:36.824Z,3.53
2023-01-01T14:32:16.596Z,3.78
2023-01-01T14:34:46.518Z,3.45
2023-01-01T14:37:24.263Z,2.38
2023-01-01T14:40:10.532Z,2.13
2023-01-01T14:42:42.568Z,2.33
2023-01-01T14:45:17.237Z,2.90
2023-01-01T14:47:50.428Z,2.33
2023-01-01T14:50:25.519Z,2.63
2023-01-01T14:52:59.272Z,2.75
2023-01-01T14:55:34.098Z,2.97
2023-01-01T14:58:05.839Z,3.40
2023-01-01T15:00:36.030Z,2.90
2023-01-01T15:03:13.442Z,2.45
2023-01-01T15:05:45.570Z,3.63
2023-01-01T15:08:22.284Z,2.88
2023-01-01T15:10:54.310Z,1.83
2023-01-01T15:13:25.440Z,3.83
2023-01-01T15:15:56.506Z,3.20
2023-01-01T15:18:39.738Z,2.13
2023-01-01T15:21:15.081Z,3.03
2023-01-01T15:23:55.383Z,3.25
2023-01-01T15:26:30.772Z,3.17
2023-01-01T15:29:01.914Z,3.15
2023-01-01T15:31:40.783Z,2.50
2023-01-01T15:34:24.602Z,3.47
2023-01-01T15:36:56.500Z,2.70
2023-01-01T15:39:26.339Z,2.65
2023-01-01T15:41:57.513Z,3.47
2023-01-01T15:44:32.671Z,3.60
2023-01-01T15:47:13.640Z,4.32
2023-01-01T15:49:42.922Z,3.28
2023-01-01T15:54:48.628Z,2.75
2023-01-01T15:57:22.739Z,3.05
2023-01-01T15:59:53.894Z,2.53
2023-01-01T16:02:30.804Z,4.18
2023-01-01T16:05:00.298Z,2.38
2023-01-01T16:09:58.743Z,2.35
2023-01-01T16:14:59.210Z,2.72
2023-01-01T16:19:57.663Z,2.50
2023-01-01T16:22:30.589Z,2.60
2023-01-01T16:25:03.481Z,2.35
2023-01-01T16:27:59.345Z,1.65
2023-01-01T16:30:28.508Z,2.20
2023-01-01T16:32:58.162Z,2.75
2023-01-01T16:37:56.340Z,3.10
2023-01-01T16:40:26.925Z,4.13
2023-01-01T16:42:57.975Z,3.65
2023-01-01T16:45:26.974Z,2.53
2023-01-01T16:47:57.281Z,2.50
2023-01-01T16:50:26.620Z,3.35
2023-01-01T16:52:57.409Z,3.67
2023-01-01T16:55:26.661Z,3.92
2023-01-01T17:00:46.278Z,2.72
2023-01-01T17:03:16.360Z,2.80
2023-01-01T17:05:45.536Z,2.55
2023-01-01T17:08:14.949Z,4.50
2023-01-01T17:13:13.507Z,2.38
2023-01-01T17:15:43.586Z,2.47
2023-01-01T17:18:16.044Z,3.83
2023-01-01T17:20:46.168Z,3.20
2023-01-01T17:23:15.545Z,2.90
2023-01-01T17:25:44.548Z,3.63
2023-01-01T17:28:14.013Z,4.25
2023-01-01T17:30:43.044Z,3.30
2023-01-01T17:35:42.766Z,3.25
2023-01-01T17:38:12.548Z,3.47
2023-01-01T17:43:11.014Z,3.53
2023-01-01T17:45:40.184Z,4.28
2023-01-01T17:50:38.304Z,3.75
2023-01-01T17:55:45.323Z,3.80
2023-01-01T17:58:16.723Z,4.03
2023-01-01T18:00:46.059Z,4.05
2023-01-01T18:05:45.269Z,3.42
2023-01-01T18:08:16.433Z,3.45
2023-01-01T18:10:45.676Z,4.35
2023-01-01T18:15:44.164Z,3.65
2023-01-01T18:18:16.142Z,4.07
2023-01-01T18:20:45.307Z,3.45
2023-01-01T18:25:45.130Z,4.18
2023-01-01T18:28:14.704Z,4.95
2023-01-01T18:30:43.694Z,4.10
2023-01-01T18:33:14.802Z,4.03
2023-01-01T18:35:46.129Z,3.97
2023-01-01T18:38:18.806Z,5.35
2023-01-01T18:41:00.554Z,5.10
2023-01-01T18:43:30.500Z,5.20
2023-01-01T18:46:00.078Z,6.65
2023-01-01T18:48:29.645Z,5.93
2023-01-01T18:50:59.033Z,6.43
2023-01-01T18:53:31.162Z,5.35
2023-01-01T18:56:10.536Z,6.20
2023-01-01T18:58:41.731Z,4.18
2023-01-01T19:01:16.770Z,4.88
2023-01-01T19:03:49.193Z,5.47
2023-01-01T19:06:26.578Z,5.80
2023-01-01T19:09:09.806Z,5.90
2023-01-01T19:11:40.305Z,5.40
2023-01-01T19:14:17.604Z,5.60
2023-01-01T19:16:48.306Z,5.90
2023-01-01T19:19:20.319Z,5.18
2023-01-01T19:21:52.088Z,5.35
2023-01-01T19:24:25.762Z,6.18
2023-01-01T19:27:00.049Z,5.25
2023-01-01T19:29:32.108Z,4.90
2023-01-01T19:32:01.842Z,6.93
2023-01-01T19:34:35.386Z,5.20
2023-01-01T19:37:05.439Z,6.50
2023-01-01T19:39:38.736Z,5.82
2023-01-01T19:42:10.717Z,6.38
2023-01-01T19:44:40.271Z,5.88
2023-01-01T19:47:10.937Z,5.70
2023-01-01T19:49:40.505Z,6.90
2023-01-01T19:52:09.523Z,6.88
2023-01-01T19:54:40.581Z,7.47
2023-01-01T19:57:09.790Z,7.43
2023-01-01T19:59:39.061Z,8.18
2023-01-01T20:02:44.200Z,7.35
2023-01-01T20:04:58.515Z,6.80
2023-01-01T20:07:27.599Z,6.63
2023-01-01T20:09:58.308Z,6.80
2023-01-01T20:12:27.244Z,6.40
2023-01-01T20:14:56.616Z,6.63
2023-01-01T20:17:25.659Z,6.25
2023-01-01T20:19:55.271Z,6.93
2023-01-01T20:22:24.315Z,6.47
2023-01-01T20:24:53.755Z,5.97
2023-01-01T20:27:27.495Z,5.57
2023-01-01T20:29:57.742Z,5.68
2023-01-01T20:32:27.101Z,6.40
2023-01-01T20:37:39.365Z,7.13
2023-01-01T20:40:13.877Z,5.95
2023-01-01T20:42:44.919Z,5.57
2023-01-01T20:45:15.772Z,5.97
2023-01-01T20:47:44.811Z,5.63
2023-01-01T20:50:14.059Z,5.28
2023-01-01T20:52:43.042Z,6.35
2023-01-01T20:55:12.384Z,5.60
2023-01-01T20:57:42.359Z,6.35
2023-01-01T21:00:14.294Z,5.60
2023-01-01T21:02:45.295Z,7.75
2023-01-01T21:05:15.004Z,7.45
2023-01-01T21:07:44.883Z,6.70
2023-01-01T21:10:14.145Z,7.20
2023-01-01T21:12:45.389Z,7.82
2023-01-01T21:15:18.719Z,7.43
2023-01-01T21:17:47.958Z,7.43
2023-01-01T21:20:17.410Z,6.68
2023-01-01T21:22:47.890Z,7.70
2023-01-01T21:25:50.619Z,7.15
2023-01-01T21:28:15.823Z,8.05
2023-01-01T21:30:51.819Z,7.10
2023-01-01T21:33:27.827Z,7.85
2023-01-01T21:35:57.629Z,8.13
2023-01-01T21:38:29.095Z,8.80
2023-01-01T21:40:59.794Z,7.25
2023-01-01T21:43:39.657Z,8.40
2023-01-01T21:46:29.525Z,9.10
2023-01-01T21:49:02.093Z,8.65
2023-01-01T21:51:34.654Z,9.32
2023-01-01T21:54:23.852Z,8.00
2023-01-01T21:59:34.953Z,9.85
2023-01-01T22:02:31.754Z,8.48
2023-01-01T22:05:03.436Z,9.90
2023-01-01T22:10:27.197Z,9.27
2023-01-01T22:13:00.576Z,10.88
2023-01-01T22:15:39.973Z,10.15
2023-01-01T22:20:57.990Z,7.75
2023-01-01T22:23:38.649Z,8.38
2023-01-01T22:26:18.516Z,9.45
2023-01-01T22:28:51.483Z,9.13
2023-01-01T22:31:23.518Z,8.00
2023-01-01T22:33:55.381Z,8.68
2023-01-01T22:36:26.634Z,8.60
2023-01-01T22:38:59.030Z,8.55
2023-01-01T22:41:28.226Z,9.00
2023-01-01T22:44:01.449Z,8.27
2023-01-01T22:46:34.557Z,7.10
2023-01-01T22:49:16.993Z,8.95
2023-01-01T22:51:47.472Z,8.85
2023-01-01T22:54:16.781Z,7.40
2023-01-01T22:56:45.888Z,9.63
2023-01-01T22:59:15.339Z,9.02
2023-01-01T23:01:44.388Z,7.10
2023-01-01T23:04:16.088Z,7.18
2023-01-01T23:06:45.346Z,8.10
2023-01-01T23:09:14.902Z,10.77
2023-01-01T23:11:44.099Z,12.10
2023-01-01T23:14:33.151Z,13.57
2023-01-01T23:17:06.074Z,9.75
2023-01-01T23:19:36.765Z,11.15
2023-01-01T23:22:06.327Z,10.82
2023-01-01T23:24:36.448Z,10.65
2023-01-01T23:27:06.063Z,9.15
2023-01-01T23:29:35.653Z,11.02
2023-01-01T23:32:05.551Z,11.02
2023-01-01T23:34:36.368Z,10.80
2023-01-01T23:37:06.679Z,11.85
2023-01-01T23:39:37.036Z,12.65
2023-01-01T23:42:06.116Z,12.95
2023-01-01T23:44:35.676Z,14.30
2023-01-01T23:47:05.285Z,12.02
2023-01-01T23:49:36.417Z,13.93
2023-01-01T23:52:05.808Z,13.63
2023-01-01T23:57:03.823Z,13.82
2023-01-01T23:59:33.127Z,12.70
